Back to top

Worland, WY weather

Worland Municipal Airport, Worland, WY: 11/16/2019 18:53
Visibility10 statute milesclear sky
View 7-Day Forecast
Area Summary
Sky/CloudsSky Clear
Weather [last 24 hours]None [rain began 08:25 ended 08:35; rain began 09:15 ended 09:05 began 09:32; rain ended 10:13 ]
Pressure30.22 in.Hg (1024 hPa)
Dew Point27 °F (-2.8 °C)
Relative Humidity 85 %
Last 24-Hour Precip.0.01 in. (0.254 mm)
Reading TimePrecipitation
6-hr ending 11/16@10:530.01 in. (0.254 mm)
Temperature30.9 °F (-0.6 °C)red thermometer
Wind Chill23.5 °F (-4.74 °C)
Reading TimeMinimum to Maximum Temperature
6-hr ending 11/16@16:5339.9 °F to 50 °F (4.4 °C to 10 °C)
6-hr ending 11/16@10:5333.1 °F to 42.1 °F (0.6 °C to 5.6 °C)
6-hr ending 11/16@04:5332 °F to 35.1 °F (0 °C to 1.7 °C)
6-hr ending 11/15@22:5332 °F to 39 °F (0 °C to 3.9 °C)
24-hr ending 11/15@23:5323 °F to 45 °F (-5 °C to 7.2 °C)
Wind8.06 MPH (7 KT) green arrow pointing 202.5 degrees
Wind FromSouth/Southwest (200 Degrees)
Twilight Begins06:36Sunshine Yesterday
Sunrise07:07N/A
Sunset16:46
Twilight Ends17:17
METARKWRL 170153Z AUTO 20007KT 10SM CLR M01/M03 A3022 RMK AO2 SLP264 T10061028
Tags: